Terminal Aerodrome Forecast
Issued by NWS

Home | Current Version | Previous Version | Text Only | Print | Product List | Glossary On
Versions: 1 2 3 4 5 6 7 8 9 10 11 12 13
000
FTAK31 PANC 201740
TAFAIL
TAF
PAIL 201740Z 2018/2118 05008KT P6SM -RA SCT025 OVC050
      TEMPO 2018/2022 5SM -RA BKN025 OVC035
     FM210100 35012G20KT P6SM VCSH OVC040=

USA.gov is the U.S. government's official web portal to all federal, state and local government web resources and services.